createdAt,value
2022-09-28T00:00:57.356Z,8.10
2022-09-28T00:06:59.341Z,8.10
2022-09-28T00:13:01.836Z,8.10
2022-09-28T00:19:04.833Z,8.10
2022-09-28T00:25:06.847Z,8.10
2022-09-28T00:31:08.531Z,8.10
2022-09-28T00:37:10.247Z,8.10
2022-09-28T00:43:21.421Z,7.90
2022-09-28T00:49:30.694Z,7.90
2022-09-28T00:55:36.674Z,7.90
2022-09-28T01:01:38.915Z,7.80
2022-09-28T01:07:40.928Z,7.70
2022-09-28T01:13:43.361Z,7.70
2022-09-28T01:19:47.976Z,7.60
2022-09-28T01:25:52.656Z,7.70
2022-09-28T01:32:01.380Z,7.70
2022-09-28T01:38:06.063Z,7.80
2022-09-28T01:44:10.244Z,7.80
2022-09-28T01:50:16.690Z,7.80
2022-09-28T01:56:21.377Z,7.80
2022-09-28T02:02:25.845Z,7.80
2022-09-28T02:08:31.394Z,7.80
2022-09-28T02:14:34.822Z,7.90
2022-09-28T02:20:38.073Z,7.90
2022-09-28T02:26:41.544Z,7.90
2022-09-28T02:32:45.237Z,7.90
2022-09-28T02:38:47.013Z,8.00
2022-09-28T02:44:57.803Z,7.90
2022-09-28T02:50:59.401Z,7.90
2022-09-28T02:57:03.823Z,7.90
2022-09-28T03:03:14.052Z,7.90
2022-09-28T03:09:15.631Z,7.80
2022-09-28T03:15:20.299Z,7.90
2022-09-28T03:21:22.038Z,8.00
2022-09-28T03:27:23.665Z,7.90
2022-09-28T03:33:25.307Z,7.90
2022-09-28T03:39:26.994Z,7.90
2022-09-28T03:45:28.663Z,7.90
2022-09-28T03:51:30.359Z,7.90
2022-09-28T03:57:32.079Z,7.90
2022-09-28T04:03:34.120Z,7.80
2022-09-28T04:09:35.856Z,7.80
2022-09-28T04:15:38.501Z,7.70
2022-09-28T04:21:40.789Z,7.60
2022-09-28T04:28:01.166Z,7.70
2022-09-28T04:34:02.756Z,7.70
2022-09-28T04:40:04.559Z,7.70
2022-09-28T04:46:06.320Z,7.70
2022-09-28T04:52:08.308Z,7.70
2022-09-28T04:58:10.222Z,7.80
2022-09-28T05:04:11.886Z,7.70
2022-09-28T05:10:13.617Z,7.70
2022-09-28T05:16:16.346Z,7.70
2022-09-28T05:22:18.047Z,7.50
2022-09-28T05:28:22.342Z,7.60
2022-09-28T05:34:23.957Z,7.60
2022-09-28T05:40:25.575Z,7.60
2022-09-28T05:46:27.282Z,7.60
2022-09-28T05:52:28.906Z,7.60
2022-09-28T05:58:30.533Z,7.60
2022-09-28T06:04:32.447Z,7.70
2022-09-28T06:10:34.286Z,7.60
2022-09-28T06:16:38.252Z,7.70
2022-09-28T06:22:43.298Z,7.60
2022-09-28T06:28:45.108Z,7.60
2022-09-28T06:34:46.699Z,7.70
2022-09-28T06:40:48.362Z,7.70
2022-09-28T06:46:51.045Z,7.70
2022-09-28T06:52:53.644Z,7.60
2022-09-28T06:58:55.806Z,7.70
2022-09-28T07:04:57.390Z,7.70
2022-09-28T07:10:59.009Z,7.80
2022-09-28T07:17:13.794Z,7.90
2022-09-28T07:23:19.794Z,8.00
2022-09-28T07:29:21.796Z,8.20
2022-09-28T07:35:23.421Z,8.30
2022-09-28T07:41:32.546Z,8.20
2022-09-28T07:47:35.365Z,8.30
2022-09-28T07:53:38.458Z,8.30
2022-09-28T07:59:40.202Z,8.40
2022-09-28T08:05:42.906Z,8.40
2022-09-28T08:11:44.567Z,8.30
2022-09-28T08:17:46.856Z,8.10
2022-09-28T08:23:48.505Z,8.10
2022-09-28T08:29:50.268Z,8.30
2022-09-28T08:35:57.530Z,8.30
2022-09-28T08:42:17.655Z,8.20
2022-09-28T08:48:40.028Z,8.40
2022-09-28T08:54:50.287Z,8.40
2022-09-28T09:00:52.986Z,8.30
2022-09-28T09:07:02.523Z,8.20
2022-09-28T09:13:07.270Z,8.40
2022-09-28T09:19:15.316Z,8.40
2022-09-28T09:25:28.463Z,8.40
2022-09-28T09:31:48.800Z,8.40
2022-09-28T09:38:09.408Z,8.30
2022-09-28T09:44:19.083Z,8.40
2022-09-28T09:50:39.920Z,8.40
2022-09-28T09:57:04.758Z,8.50
2022-09-28T10:03:06.367Z,8.50
2022-09-28T10:09:13.692Z,8.80
2022-09-28T10:15:23.314Z,8.90
2022-09-28T10:21:25.259Z,8.90
2022-09-28T10:27:30.024Z,9.00
2022-09-28T10:33:32.809Z,9.20
2022-09-28T10:39:37.123Z,9.20
2022-09-28T10:45:38.860Z,9.30
2022-09-28T10:51:41.925Z,9.70
2022-09-28T10:57:43.524Z,10.40
2022-09-28T11:03:53.663Z,10.40
2022-09-28T11:09:55.446Z,10.20
2022-09-28T11:15:57.202Z,10.00
2022-09-28T11:21:58.809Z,9.80
2022-09-28T11:28:04.263Z,9.70
2022-09-28T11:34:30.836Z,9.90
2022-09-28T11:40:56.628Z,10.50
2022-09-28T11:47:07.352Z,11.20
2022-09-28T11:53:13.012Z,12.10
2022-09-28T11:59:16.013Z,11.60
2022-09-28T12:05:40.849Z,11.80
2022-09-28T12:11:44.759Z,11.30
2022-09-28T12:18:01.494Z,11.50
2022-09-28T12:24:18.844Z,12.10
2022-09-28T12:30:21.589Z,12.50
2022-09-28T12:36:41.608Z,12.80
2022-09-28T12:42:44.240Z,12.80
2022-09-28T12:49:47.314Z,12.10
2022-09-28T12:55:30.745Z,11.70
2022-09-28T13:01:44.345Z,11.20
2022-09-28T13:07:50.015Z,10.80
2022-09-28T13:14:10.335Z,10.60
2022-09-28T13:20:17.538Z,10.40
2022-09-28T13:26:23.717Z,10.10
2022-09-28T13:32:26.853Z,9.60
2022-09-28T13:38:29.792Z,9.30
2022-09-28T13:44:31.358Z,9.30
2022-09-28T13:50:38.584Z,9.30
2022-09-28T13:57:05.600Z,9.10
2022-09-28T14:03:25.537Z,9.00
2022-09-28T14:09:40.034Z,9.00
2022-09-28T14:15:44.997Z,9.10
2022-09-28T14:22:06.775Z,9.10
2022-09-28T14:28:08.329Z,9.20
2022-09-28T14:34:23.269Z,9.20
2022-09-28T14:40:49.894Z,9.50
2022-09-28T14:47:11.821Z,9.80
2022-09-28T14:53:23.992Z,9.90
2022-09-28T14:59:30.414Z,10.20
2022-09-28T15:05:47.112Z,10.40
2022-09-28T15:11:48.907Z,10.60
2022-09-28T15:17:57.368Z,10.30
2022-09-28T15:23:58.926Z,10.00
2022-09-28T15:30:01.264Z,10.00
2022-09-28T15:36:05.577Z,9.90
2022-09-28T15:42:07.433Z,9.90
2022-09-28T15:48:18.327Z,9.90
2022-09-28T15:54:24.841Z,9.90
2022-09-28T16:00:30.151Z,9.90
2022-09-28T16:06:32.040Z,9.80
2022-09-28T16:12:41.134Z,9.80
2022-09-28T16:18:47.405Z,9.80
2022-09-28T16:24:58.801Z,9.80
2022-09-28T16:31:22.264Z,9.80
2022-09-28T16:37:34.057Z,9.80
2022-09-28T16:43:36.316Z,9.90
2022-09-28T16:49:39.791Z,9.80
2022-09-28T16:55:41.562Z,9.70
2022-09-28T17:01:43.860Z,9.50
2022-09-28T17:07:46.725Z,9.30
2022-09-28T17:13:48.358Z,9.20
2022-09-28T17:19:49.957Z,9.10
2022-09-28T17:25:51.634Z,9.00
2022-09-28T17:31:54.578Z,8.90
2022-09-28T17:37:56.580Z,8.90
2022-09-28T17:43:58.414Z,8.80
2022-09-28T17:50:00.056Z,8.70
2022-09-28T17:56:01.634Z,8.70
2022-09-28T18:02:03.294Z,8.60
2022-09-28T18:08:04.952Z,8.70
2022-09-28T18:14:10.508Z,8.70
2022-09-28T18:20:13.249Z,8.80
2022-09-28T18:26:15.643Z,8.80
2022-09-28T18:32:17.309Z,8.80
2022-09-28T18:38:19.012Z,8.80
2022-09-28T18:44:20.693Z,8.80
2022-09-28T18:50:22.365Z,8.80
2022-09-28T18:56:24.002Z,8.80
2022-09-28T19:02:25.665Z,8.70
2022-09-28T19:08:27.843Z,8.60
2022-09-28T19:14:29.540Z,8.60
2022-09-28T19:20:32.411Z,8.50
2022-09-28T19:26:34.234Z,8.50
2022-09-28T19:32:36.032Z,8.40
2022-09-28T19:38:38.425Z,8.40
2022-09-28T19:44:40.322Z,8.40
2022-09-28T19:50:41.901Z,8.30
2022-09-28T19:56:44.428Z,8.30
2022-09-28T20:02:46.387Z,8.30
2022-09-28T20:08:48.016Z,8.30
2022-09-28T20:14:49.597Z,8.30
2022-09-28T20:21:00.302Z,8.30
2022-09-28T20:27:02.501Z,8.30
2022-09-28T20:33:07.418Z,8.30
2022-09-28T20:39:10.067Z,8.40
2022-09-28T20:45:12.018Z,8.20
2022-09-28T20:51:15.299Z,8.20
2022-09-28T20:57:20.040Z,8.20
2022-09-28T21:03:21.621Z,8.20
2022-09-28T21:09:23.238Z,8.30
2022-09-28T21:15:24.884Z,8.30
2022-09-28T21:21:26.545Z,8.30
2022-09-28T21:27:28.175Z,8.20
2022-09-28T21:33:29.891Z,8.30
2022-09-28T21:39:31.522Z,8.20
2022-09-28T21:45:33.122Z,8.20
2022-09-28T21:51:35.247Z,8.20
2022-09-28T21:57:36.869Z,8.20
2022-09-28T22:03:38.498Z,8.10
2022-09-28T22:09:40.178Z,8.20
2022-09-28T22:15:41.850Z,8.20
2022-09-28T22:21:43.511Z,8.30
2022-09-28T22:27:48.135Z,8.30
2022-09-28T22:33:49.815Z,8.00
2022-09-28T22:39:51.426Z,7.90
2022-09-28T22:46:06.871Z,7.70
2022-09-28T22:52:08.498Z,7.60
2022-09-28T22:58:10.288Z,7.70
2022-09-28T23:04:11.962Z,7.70
2022-09-28T23:10:13.594Z,7.80
2022-09-28T23:16:15.345Z,7.90
2022-09-28T23:22:17.010Z,8.00
2022-09-28T23:28:19.242Z,7.90
2022-09-28T23:34:20.823Z,8.00
2022-09-28T23:40:22.450Z,8.00
2022-09-28T23:46:24.523Z,7.90
2022-09-28T23:52:26.237Z,8.00
2022-09-28T23:58:28.239Z,8.00
